createdAt,value
2019-03-22T00:05:30.501Z,65.20
2019-03-22T00:12:15.354Z,65.40
2019-03-22T00:19:00.297Z,65.90
2019-03-22T00:25:45.251Z,65.40
2019-03-22T00:32:30.111Z,65.20
2019-03-22T00:39:14.966Z,63.10
2019-03-22T00:46:02.581Z,64.50
2019-03-22T00:52:47.230Z,64.70
2019-03-22T00:59:32.115Z,65.90
2019-03-22T01:06:17.062Z,68.40
2019-03-22T01:13:02.891Z,67.80
2019-03-22T01:19:48.124Z,68.10
2019-03-22T01:26:34.114Z,66.90
2019-03-22T01:33:19.067Z,65.10
2019-03-22T01:40:09.850Z,65.20
2019-03-22T01:46:54.754Z,65.60
2019-03-22T01:53:39.614Z,66.20
2019-03-22T02:00:24.557Z,67.50
2019-03-22T02:07:09.687Z,68.10
2019-03-22T02:13:54.542Z,69.50
2019-03-22T02:20:40.559Z,70.00
2019-03-22T02:27:26.524Z,70.70
2019-03-22T02:34:11.572Z,70.70
2019-03-22T02:40:56.424Z,70.80
2019-03-22T02:47:41.283Z,70.70
2019-03-22T02:54:27.705Z,70.20
2019-03-22T03:01:12.656Z,70.90
2019-03-22T03:07:57.515Z,70.40
2019-03-22T03:14:42.363Z,71.20
2019-03-22T03:21:30.103Z,71.50
2019-03-22T03:28:14.974Z,71.80
2019-03-22T03:34:59.893Z,71.70
2019-03-22T03:41:45.007Z,71.90
2019-03-22T03:48:30.119Z,72.60
2019-03-22T03:55:15.259Z,73.50
2019-03-22T04:02:00.205Z,73.20
2019-03-22T04:08:46.718Z,73.40
2019-03-22T04:15:31.796Z,72.90
2019-03-22T04:22:16.755Z,73.30
2019-03-22T04:29:08.000Z,73.50
2019-03-22T04:35:48.377Z,74.40
2019-03-22T04:42:33.311Z,74.60
2019-03-22T04:49:21.707Z,74.40
2019-03-22T04:56:09.674Z,75.00
2019-03-22T05:02:55.279Z,74.70
2019-03-22T05:09:43.018Z,74.70
2019-03-22T05:16:28.988Z,74.60
2019-03-22T05:23:15.987Z,74.30
2019-03-22T05:30:02.709Z,73.50
2019-03-22T05:36:47.644Z,72.40
2019-03-22T05:43:32.643Z,71.50
2019-03-22T05:50:17.508Z,69.20
2019-03-22T05:57:12.805Z,66.70
2019-03-22T06:03:49.042Z,63.40
2019-03-22T06:10:33.914Z,61.40
2019-03-22T06:17:18.876Z,60.10
2019-03-22T06:24:03.898Z,59.00
2019-03-22T06:30:48.758Z,56.20
2019-03-22T06:37:33.615Z,46.10
2019-03-22T06:44:18.472Z,27.40
2019-03-22T06:51:03.386Z,23.00
2019-03-22T06:57:48.252Z,20.70
2019-03-22T07:04:33.119Z,19.50
2019-03-22T07:11:17.983Z,18.70
2019-03-22T07:18:02.930Z,17.80
2019-03-22T07:24:48.298Z,16.60
2019-03-22T07:31:35.734Z,16.20
2019-03-22T07:38:19.843Z,15.50
2019-03-22T07:45:06.327Z,15.70
2019-03-22T07:51:51.863Z,15.90
2019-03-22T07:58:36.731Z,15.50
2019-03-22T08:05:21.811Z,14.90
2019-03-22T08:12:06.766Z,14.90
2019-03-22T08:18:51.715Z,14.70
2019-03-22T08:25:36.730Z,14.50
2019-03-22T08:32:21.675Z,14.40
2019-03-22T08:39:08.556Z,14.30
2019-03-22T08:45:53.503Z,13.90
2019-03-22T08:52:38.439Z,13.60
2019-03-22T08:59:24.383Z,13.60
2019-03-22T09:06:09.328Z,13.40
2019-03-22T09:12:54.462Z,13.40
2019-03-22T09:19:39.406Z,13.20
2019-03-22T09:26:24.359Z,13.20
2019-03-22T09:33:09.288Z,13.50
2019-03-22T09:39:54.456Z,13.50
2019-03-22T09:46:39.370Z,14.40
2019-03-22T09:53:24.294Z,14.40
2019-03-22T10:00:12.347Z,14.30
2019-03-22T10:06:57.290Z,14.20
2019-03-22T10:13:42.349Z,15.60
2019-03-22T10:20:27.246Z,15.50
2019-03-22T10:27:12.201Z,16.50
2019-03-22T10:33:57.766Z,15.60
2019-03-22T10:40:42.975Z,15.90
2019-03-22T10:47:28.103Z,17.20
2019-03-22T10:54:13.043Z,17.50
2019-03-22T11:00:57.991Z,17.50
2019-03-22T11:07:42.931Z,18.90
2019-03-22T11:14:27.802Z,19.30
2019-03-22T11:21:12.680Z,19.10
2019-03-22T11:27:57.580Z,19.20
2019-03-22T11:34:43.166Z,19.70
2019-03-22T11:41:28.163Z,18.90
2019-03-22T11:48:13.191Z,19.00
2019-03-22T11:54:58.668Z,20.00
2019-03-22T12:01:44.210Z,19.10
2019-03-22T12:08:30.271Z,18.90
2019-03-22T12:15:21.046Z,18.60
2019-03-22T12:22:07.271Z,20.80
2019-03-22T12:28:53.106Z,21.00
2019-03-22T12:35:40.102Z,21.30
2019-03-22T12:42:25.092Z,20.50
2019-03-22T12:49:10.400Z,20.50
2019-03-22T12:55:55.480Z,20.70
2019-03-22T13:02:42.436Z,20.40
2019-03-22T13:09:27.204Z,20.00
2019-03-22T13:16:12.079Z,20.50
2019-03-22T13:22:57.399Z,20.40
2019-03-22T13:29:42.475Z,20.30
2019-03-22T13:36:27.487Z,19.90
2019-03-22T13:43:14.027Z,19.60
2019-03-22T13:49:58.946Z,18.10
2019-03-22T13:56:43.931Z,19.50
2019-03-22T14:03:29.076Z,19.80
2019-03-22T14:10:33.623Z,20.00
2019-03-22T14:17:18.638Z,19.50
2019-03-22T14:24:06.037Z,19.30
2019-03-22T14:30:50.242Z,20.10
2019-03-22T14:37:37.315Z,19.70
2019-03-22T14:44:25.483Z,19.80
2019-03-22T14:51:09.518Z,19.40
2019-03-22T14:57:54.550Z,18.80
2019-03-22T15:04:42.282Z,18.60
2019-03-22T15:11:27.159Z,18.00
2019-03-22T15:18:19.523Z,17.80
2019-03-22T15:25:20.215Z,17.90
2019-03-22T15:32:06.781Z,17.90
2019-03-22T15:39:08.362Z,18.10
2019-03-22T15:45:53.508Z,18.40
2019-03-22T15:52:38.504Z,18.40
2019-03-22T15:59:25.536Z,18.80
2019-03-22T16:06:11.018Z,19.30
2019-03-22T16:12:55.977Z,20.00
2019-03-22T16:19:40.859Z,20.10
2019-03-22T16:26:25.800Z,20.40
2019-03-22T16:33:10.771Z,21.10
2019-03-22T16:39:55.769Z,21.60
2019-03-22T16:46:40.716Z,21.70
2019-03-22T16:53:25.600Z,21.30
2019-03-22T17:00:11.675Z,21.70
2019-03-22T17:06:56.622Z,22.10
2019-03-22T17:13:41.571Z,22.80
2019-03-22T17:20:26.508Z,23.30
2019-03-22T17:27:13.130Z,23.80
2019-03-22T17:33:58.065Z,24.60
2019-03-22T17:40:42.946Z,25.80
2019-03-22T17:47:27.897Z,26.50
2019-03-22T17:54:12.768Z,27.50
2019-03-22T18:00:57.804Z,28.20
2019-03-22T18:07:42.743Z,29.60
2019-03-22T18:14:28.686Z,30.70
2019-03-22T18:21:13.811Z,32.00
2019-03-22T18:27:58.684Z,32.10
2019-03-22T18:34:43.555Z,32.70
2019-03-22T18:41:28.422Z,33.80
2019-03-22T18:48:13.507Z,35.30
2019-03-22T18:54:58.435Z,37.00
2019-03-22T19:01:43.373Z,37.50
2019-03-22T19:08:29.282Z,37.80
2019-03-22T19:15:15.058Z,38.10
2019-03-22T19:21:59.921Z,41.20
2019-03-22T19:28:44.786Z,43.50
2019-03-22T19:35:30.721Z,43.40
2019-03-22T19:42:15.664Z,44.10
2019-03-22T19:49:00.602Z,45.60
2019-03-22T19:55:45.932Z,45.00
2019-03-22T20:02:31.265Z,47.10
2019-03-22T20:09:17.395Z,46.80
2019-03-22T20:16:02.383Z,47.80
2019-03-22T20:22:47.328Z,49.00
2019-03-22T20:29:32.267Z,49.30
2019-03-22T20:36:18.306Z,50.50
2019-03-22T20:43:03.232Z,51.50
2019-03-22T20:49:48.298Z,50.60
2019-03-22T20:56:33.159Z,51.80
2019-03-22T21:03:18.035Z,52.50
2019-03-22T21:10:03.248Z,54.20
2019-03-22T21:16:48.170Z,55.20
2019-03-22T21:23:36.620Z,56.20
2019-03-22T21:30:22.436Z,56.10
2019-03-22T21:37:07.651Z,56.60
2019-03-22T21:43:52.714Z,58.00
2019-03-22T21:50:37.681Z,58.80
2019-03-22T21:57:22.835Z,59.30
2019-03-22T22:04:08.362Z,60.00
2019-03-22T22:10:59.658Z,61.20
2019-03-22T22:17:41.471Z,61.40
2019-03-22T22:24:26.331Z,62.90
2019-03-22T22:31:12.734Z,62.20
2019-03-22T22:37:57.866Z,62.60
2019-03-22T22:44:42.736Z,62.50
2019-03-22T22:51:27.703Z,63.00
2019-03-22T22:58:13.311Z,65.20
2019-03-22T23:04:58.842Z,64.20
2019-03-22T23:11:44.378Z,64.70
2019-03-22T23:18:29.306Z,64.50
2019-03-22T23:25:15.605Z,64.90
2019-03-22T23:32:00.526Z,66.30
2019-03-22T23:38:45.391Z,65.40
2019-03-22T23:45:30.247Z,66.40
2019-03-22T23:52:15.175Z,65.20
2019-03-22T23:59:00.034Z,66.60
